Time;durP1;ratioP1;P1;durP2;ratioP2;P2;SDS_P1;SDS_P2;PMS_P1;PMS_P2;Temp;Humidity;BMP_temperature;BMP_pressure;BME280_temperature;BME280_humidity;BME280_pressure;Samples;Min_cycle;Max_cycle;Signal;HPM_P1;HPM_P2
2022/02/13 00:01:11;;;;;;;;;;;6.30;81.90;;;;;;5078343;28;19908;-74
2022/02/13 00:03:36;;;;;;;;;;;6.30;82.00;;;;;;5077874;28;19920;-74
2022/02/13 00:06:02;;;;;;;;;;;6.30;82.00;;;;;;5078342;28;19932;-74
2022/02/13 00:08:28;;;;;;;;;;;6.40;81.90;;;;;;5076778;28;19908;-74
2022/02/13 00:10:53;;;;;;;;;;;6.40;81.80;;;;;;5077647;28;19919;-74
2022/02/13 00:13:19;;;;;;;;;;;6.40;81.90;;;;;;5077368;28;19923;-76
2022/02/13 00:15:45;;;;;;;;;;;6.40;82.00;;;;;;5077859;28;20367;-75
2022/02/13 00:18:10;;;;;;;;;;;6.40;82.40;;;;;;5077361;28;19916;-75
2022/02/13 00:20:36;;;;;;;;;;;6.40;83.30;;;;;;5077093;28;19916;-76
2022/02/13 00:23:01;;;;;;;;;;;6.40;83.00;;;;;;5077550;28;19913;-75
2022/02/13 00:25:28;;;;;;;;;;;6.50;83.70;;;;;;5077968;28;19908;-76
2022/02/13 00:27:54;;;;;;;;;;;6.50;83.20;;;;;;5077687;28;19951;-75
2022/02/13 00:30:19;;;;;;;;;;;6.50;82.80;;;;;;5078011;28;19909;-75
2022/02/13 00:32:45;;;;;;;;;;;6.50;82.50;;;;;;5075683;28;20299;-76
2022/02/13 00:35:12;;;;;;;;;;;6.50;82.40;;;;;;5077891;28;19909;-75
2022/02/13 00:37:38;;;;;;;;;;;6.50;82.50;;;;;;5077655;28;19966;-75
2022/02/13 00:40:04;;;;;;;;;;;6.50;82.50;;;;;;5076649;28;19909;-76
2022/02/13 00:42:29;;;;;;;;;;;6.40;82.40;;;;;;5076199;28;19955;-76
2022/02/13 00:44:55;;;;;;;;;;;6.50;82.50;;;;;;5076016;28;19959;-76
2022/02/13 00:47:20;;;;;;;;;;;6.50;82.00;;;;;;5077771;28;20007;-75
2022/02/13 00:49:46;;;;;;;;;;;6.50;82.20;;;;;;5077929;28;19908;-75
2022/02/13 00:52:12;;;;;;;;;;;6.50;82.60;;;;;;5075918;28;19912;-75
2022/02/13 00:54:38;;;;;;;;;;;6.50;82.70;;;;;;5077191;28;20013;-75
2022/02/13 00:57:04;;;;;;;;;;;6.50;83.00;;;;;;5077046;28;20371;-75
2022/02/13 00:59:30;;;;;;;;;;;6.50;82.70;;;;;;5077678;28;19995;-75
2022/02/13 01:01:56;;;;;;;;;;;6.50;82.50;;;;;;5076556;28;19916;-76
2022/02/13 01:04:23;;;;;;;;;;;6.50;82.70;;;;;;5076856;28;19999;-76
2022/02/13 01:06:49;;;;;;;;;;;6.60;83.00;;;;;;5076143;28;19908;-76
2022/02/13 01:09:14;;;;;;;;;;;6.60;82.60;;;;;;5077336;28;19908;-76
2022/02/13 01:11:40;;;;;;;;;;;6.60;82.50;;;;;;5081319;28;19909;-76
2022/02/13 01:14:06;;;;;;;;;;;6.60;82.50;;;;;;5080340;28;19924;-74
2022/02/13 01:16:31;;;;;;;;;;;6.60;82.60;;;;;;5079185;28;19913;-80
2022/02/13 01:18:57;;;;;;;;;;;6.60;82.80;;;;;;5079650;28;19913;-81
2022/02/13 01:21:23;;;;;;;;;;;6.60;82.90;;;;;;5077347;28;19939;-81
2022/02/13 01:23:48;;;;;;;;;;;6.60;82.80;;;;;;5077701;28;19909;-80
2022/02/13 01:26:15;;;;;;;;;;;6.60;82.90;;;;;;5078400;28;19919;-81
2022/02/13 01:28:41;;;;;;;;;;;6.60;83.00;;;;;;5079675;28;19913;-80
2022/02/13 01:31:08;;;;;;;;;;;6.60;83.00;;;;;;5080504;28;19913;-80
2022/02/13 01:33:34;;;;;;;;;;;6.60;83.00;;;;;;5078946;28;19916;-81
2022/02/13 01:35:59;;;;;;;;;;;6.60;83.30;;;;;;5068184;28;19969;-81
2022/02/13 01:38:26;;;;;;;;;;;6.60;83.20;;;;;;5079044;28;19917;-81
2022/02/13 01:40:52;;;;;;;;;;;6.70;84.40;;;;;;5078169;28;19920;-81
2022/02/13 01:43:17;;;;;;;;;;;6.70;83.90;;;;;;5080549;28;19913;-81
2022/02/13 01:45:43;;;;;;;;;;;6.70;83.50;;;;;;5068244;28;19928;-81
2022/02/13 01:48:09;;;;;;;;;;;6.70;83.50;;;;;;5079097;28;19913;-81
2022/02/13 01:50:35;;;;;;;;;;;6.70;83.60;;;;;;5073030;28;20020;-80
2022/02/13 01:53:01;;;;;;;;;;;6.70;83.60;;;;;;5074012;28;20294;-80
2022/02/13 01:55:27;;;;;;;;;;;6.70;84.20;;;;;;5080432;28;19912;-81
2022/02/13 01:57:52;;;;;;;;;;;6.70;83.90;;;;;;5078918;28;20287;-81
2022/02/13 02:00:18;;;;;;;;;;;6.70;83.70;;;;;;5080300;28;19913;-81
2022/02/13 02:02:43;;;;;;;;;;;6.70;83.80;;;;;;5070838;28;19935;-80
2022/02/13 02:05:09;;;;;;;;;;;6.70;83.50;;;;;;5078838;28;19913;-80
2022/02/13 02:07:35;;;;;;;;;;;6.70;83.40;;;;;;5079802;28;19952;-81
2022/02/13 02:10:00;;;;;;;;;;;6.70;83.30;;;;;;5079710;28;19912;-80
2022/02/13 02:12:26;;;;;;;;;;;6.70;83.50;;;;;;5078913;28;20382;-80
2022/02/13 02:14:52;;;;;;;;;;;6.70;83.70;;;;;;5080119;28;19920;-81
2022/02/13 02:17:18;;;;;;;;;;;6.70;84.00;;;;;;5079570;28;19912;-81
2022/02/13 02:19:44;;;;;;;;;;;6.70;83.60;;;;;;5079554;28;19916;-81
2022/02/13 02:22:10;;;;;;;;;;;6.70;83.10;;;;;;5078775;28;19913;-81
2022/02/13 02:24:35;;;;;;;;;;;6.70;83.20;;;;;;5075401;28;19913;-81
2022/02/13 02:27:02;;;;;;;;;;;6.70;83.70;;;;;;5077677;28;20003;-81
2022/02/13 02:29:28;;;;;;;;;;;6.80;83.60;;;;;;5078634;28;20403;-81
2022/02/13 02:31:54;;;;;;;;;;;6.80;83.50;;;;;;5079279;28;19947;-81
2022/02/13 02:34:19;;;;;;;;;;;6.80;83.50;;;;;;5078788;28;19962;-81
2022/02/13 02:36:45;;;;;;;;;;;6.80;83.50;;;;;;5079694;28;20387;-81
2022/02/13 02:39:11;;;;;;;;;;;6.80;83.70;;;;;;5077026;28;19916;-81
2022/02/13 02:41:37;;;;;;;;;;;6.80;84.20;;;;;;5079073;28;19916;-81
2022/02/13 02:44:03;;;;;;;;;;;6.80;83.70;;;;;;5079092;28;19924;-81
2022/02/13 02:46:28;;;;;;;;;;;6.80;83.70;;;;;;5079523;28;19912;-81
2022/02/13 02:48:54;;;;;;;;;;;6.80;83.50;;;;;;5077569;28;19908;-81
2022/02/13 02:51:20;;;;;;;;;;;6.80;83.30;;;;;;5078068;28;19980;-81
2022/02/13 02:53:45;;;;;;;;;;;6.80;83.50;;;;;;5077883;28;19982;-81
2022/02/13 02:56:11;;;;;;;;;;;6.80;83.50;;;;;;5078601;28;20452;-81
2022/02/13 02:58:38;;;;;;;;;;;6.80;83.70;;;;;;5078597;28;19935;-81
2022/02/13 03:01:04;;;;;;;;;;;6.80;84.50;;;;;;5078433;28;19921;-81
2022/02/13 03:03:30;;;;;;;;;;;6.80;84.20;;;;;;5079331;28;19908;-81
2022/02/13 03:05:56;;;;;;;;;;;6.80;84.00;;;;;;5069094;28;19999;-81
2022/02/13 03:08:22;;;;;;;;;;;6.80;83.80;;;;;;5079252;28;19963;-81
2022/02/13 03:10:48;;;;;;;;;;;6.80;83.30;;;;;;5078740;28;19908;-81
2022/02/13 03:13:16;;;;;;;;;;;6.80;83.60;;;;;;5079114;28;19916;-81
2022/02/13 03:15:42;;;;;;;;;;;6.80;83.30;;;;;;5078609;28;19908;-81
2022/02/13 03:18:08;;;;;;;;;;;6.90;83.50;;;;;;5078662;28;19912;-81
2022/02/13 03:20:34;;;;;;;;;;;6.80;83.20;;;;;;5078320;28;20363;-81
2022/02/13 03:22:59;;;;;;;;;;;6.80;83.50;;;;;;5078004;28;19936;-81
2022/02/13 03:25:25;;;;;;;;;;;6.80;83.50;;;;;;5076502;28;19912;-81
2022/02/13 03:27:51;;;;;;;;;;;6.90;83.50;;;;;;5078538;28;19912;-81
2022/02/13 03:30:16;;;;;;;;;;;6.90;83.30;;;;;;5078115;28;20398;-81
2022/02/13 03:32:42;;;;;;;;;;;6.80;83.50;;;;;;5077586;28;19986;-81
2022/02/13 03:35:08;;;;;;;;;;;6.80;83.40;;;;;;5077042;28;19908;-81
2022/02/13 03:37:34;;;;;;;;;;;6.90;83.80;;;;;;5077754;28;19912;-81
2022/02/13 03:39:59;;;;;;;;;;;6.90;83.70;;;;;;5069836;28;19920;-82
2022/02/13 03:42:25;;;;;;;;;;;6.80;83.40;;;;;;5076274;28;20268;-81
2022/02/13 03:44:51;;;;;;;;;;;6.80;83.70;;;;;;5076843;28;19921;-81
2022/02/13 03:47:17;;;;;;;;;;;6.80;83.70;;;;;;5078350;28;19920;-81
2022/02/13 03:49:42;;;;;;;;;;;6.90;84.20;;;;;;5076411;28;19912;-80
2022/02/13 03:52:08;;;;;;;;;;;6.90;83.90;;;;;;5077935;28;20276;-81
2022/02/13 03:54:34;;;;;;;;;;;6.80;83.50;;;;;;5076667;28;19917;-81
2022/02/13 03:56:59;;;;;;;;;;;6.80;83.80;;;;;;5078110;28;19978;-81
2022/02/13 03:59:25;;;;;;;;;;;6.80;83.50;;;;;;5077776;28;20007;-81
2022/02/13 04:01:50;;;;;;;;;;;6.80;83.40;;;;;;5078064;28;19909;-80
2022/02/13 04:04:16;;;;;;;;;;;6.80;83.70;;;;;;5078029;28;19912;-80
2022/02/13 04:06:42;;;;;;;;;;;6.80;83.90;;;;;;5078183;28;19908;-81
2022/02/13 04:09:07;;;;;;;;;;;6.80;83.50;;;;;;5077097;28;19908;-80
2022/02/13 04:11:33;;;;;;;;;;;6.80;83.50;;;;;;5076851;28;19965;-81
2022/02/13 04:13:59;;;;;;;;;;;6.80;83.60;;;;;;5077750;28;19912;-81
2022/02/13 04:16:24;;;;;;;;;;;6.80;83.60;;;;;;5077930;28;20003;-80
2022/02/13 04:18:50;;;;;;;;;;;6.80;83.70;;;;;;5077307;28;19923;-80
2022/02/13 04:21:16;;;;;;;;;;;6.70;83.80;;;;;;5077438;28;19923;-81
2022/02/13 04:23:41;;;;;;;;;;;6.80;84.30;;;;;;5077668;28;19908;-80
2022/02/13 04:26:07;;;;;;;;;;;6.70;84.00;;;;;;5076251;28;19956;-80
2022/02/13 04:28:33;;;;;;;;;;;6.70;84.40;;;;;;5077355;28;19912;-81
2022/02/13 04:30:58;;;;;;;;;;;6.70;84.20;;;;;;5076762;28;19919;-80
2022/02/13 04:33:24;;;;;;;;;;;6.70;84.50;;;;;;5076981;28;19938;-81
2022/02/13 04:35:50;;;;;;;;;;;6.70;84.60;;;;;;5077101;28;19968;-81
2022/02/13 04:38:15;;;;;;;;;;;6.70;84.80;;;;;;5077510;28;19999;-81
2022/02/13 04:40:41;;;;;;;;;;;6.70;85.00;;;;;;5076316;28;20007;-81
2022/02/13 04:43:07;;;;;;;;;;;6.70;85.00;;;;;;5076877;28;19912;-81
2022/02/13 04:45:33;;;;;;;;;;;6.70;85.10;;;;;;5076903;28;20004;-81
2022/02/13 04:47:59;;;;;;;;;;;6.70;85.10;;;;;;5077476;28;19909;-81
2022/02/13 04:50:25;;;;;;;;;;;6.60;85.50;;;;;;5076779;28;19912;-80
2022/02/13 04:52:51;;;;;;;;;;;6.70;85.70;;;;;;5075242;28;19916;-81
2022/02/13 04:55:17;;;;;;;;;;;6.60;85.80;;;;;;5076884;28;20011;-80
2022/02/13 04:57:44;;;;;;;;;;;6.70;85.90;;;;;;5077405;28;19944;-81
2022/02/13 05:00:09;;;;;;;;;;;6.70;86.10;;;;;;5077229;28;19912;-80
2022/02/13 05:02:35;;;;;;;;;;;6.70;86.60;;;;;;5075478;28;19920;-80
2022/02/13 05:05:01;;;;;;;;;;;6.60;86.50;;;;;;5076755;28;19912;-80
2022/02/13 05:07:27;;;;;;;;;;;6.60;86.20;;;;;;5077144;28;20384;-80
2022/02/13 05:09:52;;;;;;;;;;;6.60;86.40;;;;;;5075708;28;19913;-80
2022/02/13 05:12:18;;;;;;;;;;;6.60;86.30;;;;;;5076669;28;20321;-80
2022/02/13 05:14:43;;;;;;;;;;;6.70;86.80;;;;;;5077260;28;20401;-81
2022/02/13 05:17:09;;;;;;;;;;;6.60;86.50;;;;;;5077030;28;20333;-81
2022/02/13 05:19:35;;;;;;;;;;;6.70;86.90;;;;;;5075366;28;20006;-81
2022/02/13 05:22:00;;;;;;;;;;;6.60;87.20;;;;;;5077218;28;19912;-80
2022/02/13 05:24:26;;;;;;;;;;;6.70;87.30;;;;;;5076820;28;19916;-80
2022/02/13 05:26:52;;;;;;;;;;;6.70;86.80;;;;;;5076023;28;19935;-80
2022/02/13 05:29:17;;;;;;;;;;;6.70;87.10;;;;;;5076355;28;19913;-81
2022/02/13 05:31:44;;;;;;;;;;;6.60;86.80;;;;;;5077069;28;19908;-80
2022/02/13 05:34:15;;;;;;;;;;;6.60;86.90;;;;;;5076604;28;20426;-80
2022/02/13 05:36:42;;;;;;;;;;;6.60;87.00;;;;;;5076890;28;19992;-81
2022/02/13 05:39:07;;;;;;;;;;;6.60;87.30;;;;;;5073728;28;19912;-81
2022/02/13 05:41:33;;;;;;;;;;;6.60;87.30;;;;;;5067602;28;19919;-81
2022/02/13 05:43:59;;;;;;;;;;;6.50;87.40;;;;;;5076587;28;19974;-81
2022/02/13 05:46:25;;;;;;;;;;;6.50;87.30;;;;;;5075621;28;20349;-81
2022/02/13 05:48:51;;;;;;;;;;;6.50;87.50;;;;;;5076116;28;20303;-80
2022/02/13 05:51:17;;;;;;;;;;;6.40;87.30;;;;;;5076801;28;19919;-81
2022/02/13 05:53:43;;;;;;;;;;;6.40;87.50;;;;;;5076961;28;19913;-81
2022/02/13 05:56:08;;;;;;;;;;;6.40;87.60;;;;;;5077544;28;19919;-80
2022/02/13 05:58:38;;;;;;;;;;;6.40;87.60;;;;;;5080018;28;19912;-81
2022/02/13 06:01:03;;;;;;;;;;;6.30;87.90;;;;;;5080192;28;20323;-81
2022/02/13 06:03:29;;;;;;;;;;;6.30;88.00;;;;;;5080251;28;20000;-80
2022/02/13 06:05:55;;;;;;;;;;;6.30;88.20;;;;;;5080238;28;20323;-80
2022/02/13 06:08:20;;;;;;;;;;;6.20;88.10;;;;;;5078885;28;19983;-81
2022/02/13 06:10:46;;;;;;;;;;;6.20;88.40;;;;;;5079693;28;20003;-81
2022/02/13 06:13:12;;;;;;;;;;;6.20;88.90;;;;;;5079829;28;19923;-80
2022/02/13 06:15:37;;;;;;;;;;;6.30;89.10;;;;;;5079210;28;19920;-81
2022/02/13 06:18:03;;;;;;;;;;;6.30;89.30;;;;;;5079808;28;19912;-81
2022/02/13 06:20:29;;;;;;;;;;;6.30;89.50;;;;;;5079879;28;20374;-81
2022/02/13 06:22:54;;;;;;;;;;;6.20;89.30;;;;;;5079753;28;19913;-80
2022/02/13 06:25:20;;;;;;;;;;;6.20;89.60;;;;;;5079437;28;19913;-81
2022/02/13 06:27:46;;;;;;;;;;;6.20;90.00;;;;;;5077891;28;19966;-81
2022/02/13 06:30:11;;;;;;;;;;;6.20;90.30;;;;;;5079050;28;19959;-81
2022/02/13 06:32:37;;;;;;;;;;;6.10;90.00;;;;;;5079760;28;19912;-81
2022/02/13 06:35:03;;;;;;;;;;;6.10;90.00;;;;;;5079360;28;19943;-81
2022/02/13 06:37:30;;;;;;;;;;;6.10;90.00;;;;;;5077894;28;19912;-81
2022/02/13 06:39:57;;;;;;;;;;;6.10;89.50;;;;;;5067196;28;19916;-80
2022/02/13 06:42:23;;;;;;;;;;;6.00;90.20;;;;;;5079331;28;20446;-81
2022/02/13 06:44:49;;;;;;;;;;;6.00;90.00;;;;;;5079322;28;19972;-81
2022/02/13 06:47:15;;;;;;;;;;;6.00;89.90;;;;;;5079390;28;19916;-81
2022/02/13 06:49:41;;;;;;;;;;;6.00;89.90;;;;;;5066670;28;19916;-82
2022/02/13 06:52:06;;;;;;;;;;;5.90;90.00;;;;;;5079129;28;20018;-81
2022/02/13 06:54:32;;;;;;;;;;;5.90;90.00;;;;;;5078152;28;19912;-80
2022/02/13 06:56:58;;;;;;;;;;;5.90;90.00;;;;;;5074175;28;19935;-82
2022/02/13 06:59:23;;;;;;;;;;;5.90;90.10;;;;;;5075730;28;20394;-82
2022/02/13 07:01:50;;;;;;;;;;;5.90;90.00;;;;;;5078396;28;20418;-81
2022/02/13 07:04:15;;;;;;;;;;;5.90;90.20;;;;;;5073105;28;19924;-81
2022/02/13 07:06:41;;;;;;;;;;;5.80;90.30;;;;;;5071027;28;19916;-81
2022/02/13 07:09:07;;;;;;;;;;;5.80;90.30;;;;;;5078522;28;19920;-81
2022/02/13 07:11:33;;;;;;;;;;;5.80;90.00;;;;;;5078094;28;19913;-81
2022/02/13 07:13:58;;;;;;;;;;;5.80;90.00;;;;;;5079098;28;19916;-81
2022/02/13 07:16:24;;;;;;;;;;;5.80;90.00;;;;;;5078831;28;19919;-81
2022/02/13 07:18:50;;;;;;;;;;;5.70;89.80;;;;;;5077772;28;19908;-81
2022/02/13 07:21:15;;;;;;;;;;;5.70;89.70;;;;;;5077536;28;19955;-81
2022/02/13 07:23:41;;;;;;;;;;;5.70;89.70;;;;;;5076021;28;19995;-81
2022/02/13 07:26:07;;;;;;;;;;;5.70;89.80;;;;;;5078279;28;19912;-81
2022/02/13 07:31:16;;;;;;;;;;;5.70;89.80;;;;;;5078044;28;19924;-81
2022/02/13 07:33:42;;;;;;;;;;;5.80;89.70;;;;;;5077400;28;19916;-81
2022/02/13 07:36:08;;;;;;;;;;;5.80;89.80;;;;;;5078422;28;19958;-81
2022/02/13 07:38:33;;;;;;;;;;;5.80;89.30;;;;;;5078211;28;19944;-81
2022/02/13 07:41:00;;;;;;;;;;;5.70;89.10;;;;;;5070322;28;19920;-81
2022/02/13 07:43:25;;;;;;;;;;;5.80;89.30;;;;;;5077737;28;19938;-81
2022/02/13 07:45:51;;;;;;;;;;;5.80;89.10;;;;;;5076406;28;19920;-81
2022/02/13 07:48:16;;;;;;;;;;;5.80;89.20;;;;;;5078193;28;19976;-82
2022/02/13 07:50:42;;;;;;;;;;;5.80;88.70;;;;;;5077018;28;19943;-81
2022/02/13 07:53:08;;;;;;;;;;;5.80;88.50;;;;;;5077347;28;19938;-81
2022/02/13 07:55:33;;;;;;;;;;;5.80;88.30;;;;;;5077138;28;19912;-81
2022/02/13 07:57:59;;;;;;;;;;;5.90;88.90;;;;;;5077586;28;19913;-81
2022/02/13 08:00:25;;;;;;;;;;;5.90;89.00;;;;;;5077980;28;19912;-82
2022/02/13 08:02:51;;;;;;;;;;;6.00;88.50;;;;;;5077698;28;20016;-82
2022/02/13 08:05:18;;;;;;;;;;;6.00;88.50;;;;;;5077598;28;19996;-82
2022/02/13 08:07:46;;;;;;;;;;;6.00;88.10;;;;;;5077212;28;19962;-82
2022/02/13 08:10:12;;;;;;;;;;;6.10;88.00;;;;;;5077045;28;19912;-82
2022/02/13 08:12:38;;;;;;;;;;;6.20;88.30;;;;;;5076347;28;19917;-82
2022/02/13 08:15:04;;;;;;;;;;;6.20;88.00;;;;;;5064959;28;19912;-82
2022/02/13 08:17:29;;;;;;;;;;;6.20;87.80;;;;;;5076680;28;19913;-82
2022/02/13 08:19:55;;;;;;;;;;;6.30;87.50;;;;;;5076866;28;19966;-81
2022/02/13 08:22:21;;;;;;;;;;;6.30;88.10;;;;;;5077437;28;19908;-82
2022/02/13 08:24:46;;;;;;;;;;;6.30;87.70;;;;;;5077725;28;19923;-81
2022/02/13 08:27:12;;;;;;;;;;;6.40;88.60;;;;;;5076696;28;20437;-81
2022/02/13 08:29:38;;;;;;;;;;;6.40;88.00;;;;;;5077325;28;19934;-81
2022/02/13 08:32:04;;;;;;;;;;;6.40;87.70;;;;;;5077114;28;20286;-82
2022/02/13 08:34:29;;;;;;;;;;;6.40;87.40;;;;;;5075680;28;19991;-81
2022/02/13 08:36:55;;;;;;;;;;;6.50;87.50;;;;;;5077860;28;19966;-81
2022/02/13 08:39:21;;;;;;;;;;;6.50;87.00;;;;;;5074134;28;19912;-81
2022/02/13 08:41:46;;;;;;;;;;;6.60;87.00;;;;;;5071571;28;19916;-81
2022/02/13 08:44:12;;;;;;;;;;;6.60;86.90;;;;;;5076683;28;19967;-81
2022/02/13 08:46:37;;;;;;;;;;;6.60;87.30;;;;;;5075871;28;19912;-81
2022/02/13 08:49:03;;;;;;;;;;;6.70;87.00;;;;;;5076131;28;20435;-81
2022/02/13 08:51:29;;;;;;;;;;;6.80;87.00;;;;;;5077326;28;19913;-81
2022/02/13 08:53:55;;;;;;;;;;;6.80;86.80;;;;;;5076973;28;19965;-81
2022/02/13 08:56:20;;;;;;;;;;;6.90;87.30;;;;;;5076220;28;19912;-81
2022/02/13 08:58:46;;;;;;;;;;;6.90;86.40;;;;;;5077438;28;19913;-82
2022/02/13 09:01:12;;;;;;;;;;;7.00;86.60;;;;;;5076424;28;19913;-81
2022/02/13 09:03:38;;;;;;;;;;;7.00;86.30;;;;;;5076059;28;19962;-81
2022/02/13 09:06:05;;;;;;;;;;;7.00;86.30;;;;;;5077212;28;19999;-81
2022/02/13 09:08:30;;;;;;;;;;;7.10;86.10;;;;;;5077531;28;19999;-81
2022/02/13 09:10:56;;;;;;;;;;;7.10;86.00;;;;;;5075260;28;19951;-81
2022/02/13 09:13:22;;;;;;;;;;;7.20;86.30;;;;;;5076187;28;19923;-81
2022/02/13 09:15:47;;;;;;;;;;;7.20;86.50;;;;;;5076769;28;19912;-81
2022/02/13 09:18:13;;;;;;;;;;;7.30;86.40;;;;;;5077360;28;19994;-80
2022/02/13 09:20:44;;;;;;;;;;;7.40;86.60;;;;;;5076884;28;19920;-81
2022/02/13 09:23:12;;;;;;;;;;;7.40;86.10;;;;;;5076635;28;19997;-81
2022/02/13 09:25:39;;;;;;;;;;;7.40;85.80;;;;;;5076947;28;19915;-81
2022/02/13 09:28:05;;;;;;;;;;;7.50;85.90;;;;;;5074872;28;19921;-81
2022/02/13 09:30:30;;;;;;;;;;;7.60;86.30;;;;;;5077271;28;19948;-81
2022/02/13 09:32:56;;;;;;;;;;;7.60;86.20;;;;;;5080379;28;19920;-81
2022/02/13 09:35:21;;;;;;;;;;;7.60;85.70;;;;;;5080576;28;20354;-81
2022/02/13 09:37:48;;;;;;;;;;;7.70;85.70;;;;;;5079990;28;19955;-80
2022/02/13 09:40:13;;;;;;;;;;;7.70;85.70;;;;;;5076639;28;20279;-82
2022/02/13 09:42:42;;;;;;;;;;;7.60;85.70;;;;;;5080310;28;19916;-80
2022/02/13 09:45:08;;;;;;;;;;;7.70;86.00;;;;;;5079901;28;19920;-81
2022/02/13 09:47:33;;;;;;;;;;;7.70;85.80;;;;;;5079590;28;20407;-81
2022/02/13 09:49:59;;;;;;;;;;;7.70;86.10;;;;;;5080440;28;20007;-82
2022/02/13 09:52:24;;;;;;;;;;;7.70;86.10;;;;;;5079902;28;19974;-81
2022/02/13 09:54:50;;;;;;;;;;;7.70;86.10;;;;;;5080216;28;19912;-81
2022/02/13 10:00:00;;;;;;;;;;;7.80;86.00;;;;;;5080170;28;19951;-81
2022/02/13 10:02:44;;;;;;;;;;;7.90;86.30;;;;;;5079552;28;20407;-81
2022/02/13 10:05:11;;;;;;;;;;;7.90;86.10;;;;;;5080214;28;19913;-80
2022/02/13 10:07:37;;;;;;;;;;;8.00;86.10;;;;;;5080266;28;19920;-80
2022/02/13 10:10:06;;;;;;;;;;;8.00;86.30;;;;;;5073798;28;19955;-80
2022/02/13 10:12:38;;;;;;;;;;;8.00;86.10;;;;;;5078986;28;19917;-80
2022/02/13 10:15:30;;;;;;;;;;;8.00;85.90;;;;;;5079577;28;19912;-81
2022/02/13 10:17:57;;;;;;;;;;;8.10;86.10;;;;;;5077181;28;19912;-80
2022/02/13 10:20:30;;;;;;;;;;;8.20;86.40;;;;;;5080391;28;19923;-80
2022/02/13 10:22:56;;;;;;;;;;;8.20;86.80;;;;;;5079648;28;19948;-81
2022/02/13 10:25:22;;;;;;;;;;;8.30;88.10;;;;;;5079987;28;19919;-80
2022/02/13 10:27:48;;;;;;;;;;;8.40;88.10;;;;;;5079769;28;19912;-80
2022/02/13 10:30:32;;;;;;;;;;;8.40;88.00;;;;;;5080006;28;19964;-80
2022/02/13 10:33:12;;;;;;;;;;;8.50;88.10;;;;;;5075178;28;19958;-83
2022/02/13 10:35:38;;;;;;;;;;;8.50;88.10;;;;;;5079407;28;19912;-76
2022/02/13 10:38:03;;;;;;;;;;;8.70;88.60;;;;;;5079113;28;19913;-79
2022/02/13 10:40:31;;;;;;;;;;;8.80;89.00;;;;;;5075657;28;19932;-79
2022/02/13 10:43:07;;;;;;;;;;;8.90;88.70;;;;;;5079311;28;19913;-86
2022/02/13 10:45:34;;;;;;;;;;;8.90;88.50;;;;;;5079535;28;19963;-80
2022/02/13 10:48:01;;;;;;;;;;;9.00;88.00;;;;;;5079615;28;20367;-78
2022/02/13 10:50:28;;;;;;;;;;;9.10;88.10;;;;;;5079746;28;20003;-79
2022/02/13 10:52:55;;;;;;;;;;;9.10;87.80;;;;;;5078846;28;20444;-78
2022/02/13 10:55:21;;;;;;;;;;;9.20;88.20;;;;;;5078806;28;19908;-77
2022/02/13 10:57:47;;;;;;;;;;;9.20;87.90;;;;;;5076632;28;19916;-78
2022/02/13 11:00:15;;;;;;;;;;;9.20;87.70;;;;;;5083406;28;19908;-78
2022/02/13 11:02:44;;;;;;;;;;;9.30;87.60;;;;;;5079191;28;19909;-78
2022/02/13 11:05:10;;;;;;;;;;;9.30;87.70;;;;;;5079047;28;19909;-78
2022/02/13 11:07:40;;;;;;;;;;;9.30;87.80;;;;;;5077754;28;19916;-78
2022/02/13 11:10:11;;;;;;;;;;;9.40;88.10;;;;;;5075140;28;20382;-77
2022/02/13 11:12:37;;;;;;;;;;;9.40;88.10;;;;;;5076945;28;19931;-81
2022/02/13 11:15:19;;;;;;;;;;;9.50;88.10;;;;;;5075637;28;19912;-79
2022/02/13 11:17:46;;;;;;;;;;;9.50;88.10;;;;;;5072416;28;19909;-79
2022/02/13 11:20:13;;;;;;;;;;;9.70;87.80;;;;;;5069268;28;19908;-78
2022/02/13 11:22:39;;;;;;;;;;;9.70;87.90;;;;;;5076610;28;19920;-79
2022/02/13 11:25:06;;;;;;;;;;;9.80;87.40;;;;;;5078424;28;19908;-77
2022/02/13 11:27:50;;;;;;;;;;;9.90;87.10;;;;;;5078538;28;19909;-79
2022/02/13 11:30:36;;;;;;;;;;;10.00;87.10;;;;;;5067079;28;19908;-77
2022/02/13 11:33:01;;;;;;;;;;;10.00;86.50;;;;;;5076275;28;19921;-79
2022/02/13 11:35:47;;;;;;;;;;;10.10;86.50;;;;;;5079085;28;19922;-79
2022/02/13 11:38:12;;;;;;;;;;;10.20;86.50;;;;;;5065575;28;20291;-78
2022/02/13 11:40:41;;;;;;;;;;;10.20;86.50;;;;;;5073910;28;19908;-77
2022/02/13 11:43:10;;;;;;;;;;;10.20;86.20;;;;;;5078202;28;19919;-77
2022/02/13 11:45:45;;;;;;;;;;;10.30;86.10;;;;;;5078230;28;19928;-78
2022/02/13 11:48:30;;;;;;;;;;;10.30;86.30;;;;;;5077551;28;19912;-77
2022/02/13 11:50:55;;;;;;;;;;;10.40;86.20;;;;;;5078247;28;20311;-76
2022/02/13 11:53:25;;;;;;;;;;;10.40;86.00;;;;;;5076386;28;19920;-76
2022/02/13 11:55:51;;;;;;;;;;;10.50;86.10;;;;;;5076603;28;19920;-77
2022/02/13 11:58:18;;;;;;;;;;;10.50;85.80;;;;;;5077968;28;20379;-78
2022/02/13 12:00:44;;;;;;;;;;;10.50;85.70;;;;;;5077337;28;19912;-81
2022/02/13 12:03:11;;;;;;;;;;;10.50;85.80;;;;;;5076712;28;19958;-79
2022/02/13 12:05:37;;;;;;;;;;;10.60;85.70;;;;;;5077004;28;19912;-75
2022/02/13 12:08:03;;;;;;;;;;;10.60;85.80;;;;;;5077237;28;19962;-77
2022/02/13 12:10:33;;;;;;;;;;;10.60;85.70;;;;;;5076475;28;19912;-77
2022/02/13 12:13:08;;;;;;;;;;;10.60;85.80;;;;;;5077152;28;19925;-78
2022/02/13 12:15:34;;;;;;;;;;;10.60;85.70;;;;;;5077092;28;19919;-77
2022/02/13 12:18:05;;;;;;;;;;;10.60;86.50;;;;;;5077127;28;19913;-82
2022/02/13 12:20:31;;;;;;;;;;;10.50;85.80;;;;;;5077358;28;20015;-79
2022/02/13 12:23:04;;;;;;;;;;;10.60;85.80;;;;;;5075997;28;20017;-76
2022/02/13 12:25:31;;;;;;;;;;;10.60;86.20;;;;;;5076286;28;20389;-77
2022/02/13 12:27:57;;;;;;;;;;;10.60;86.20;;;;;;5077808;28;19913;-78
2022/02/13 12:30:23;;;;;;;;;;;10.60;86.60;;;;;;5077125;28;19939;-78
2022/02/13 12:32:48;;;;;;;;;;;10.60;86.60;;;;;;5075526;28;19924;-77
2022/02/13 12:35:14;;;;;;;;;;;10.60;87.20;;;;;;5077949;28;19912;-78
2022/02/13 12:37:41;;;;;;;;;;;10.60;88.30;;;;;;5076914;28;19917;-76
2022/02/13 12:40:15;;;;;;;;;;;10.60;88.80;;;;;;5076686;28;19920;-79
2022/02/13 12:42:48;;;;;;;;;;;10.60;89.80;;;;;;5076996;28;19913;-78
2022/02/13 12:45:15;;;;;;;;;;;10.60;89.80;;;;;;5076776;28;19924;-76
2022/02/13 12:47:44;;;;;;;;;;;10.60;90.20;;;;;;5077557;28;19940;-77
2022/02/13 12:50:14;;;;;;;;;;;10.60;90.50;;;;;;5075734;28;19913;-76
2022/02/13 12:52:40;;;;;;;;;;;10.60;90.70;;;;;;5076073;28;20000;-78
2022/02/13 12:55:10;;;;;;;;;;;10.50;91.10;;;;;;5076845;28;19962;-78
2022/02/13 12:57:36;;;;;;;;;;;10.50;91.20;;;;;;5076281;28;19920;-78
2022/02/13 13:00:03;;;;;;;;;;;10.50;91.50;;;;;;5076883;28;19921;-77
2022/02/13 13:02:29;;;;;;;;;;;10.50;91.90;;;;;;5076194;28;19978;-76
2022/02/13 13:05:17;;;;;;;;;;;10.50;91.80;;;;;;5078152;28;19913;-76
2022/02/13 13:07:40;;;;;;;;;;;10.50;92.10;;;;;;5074233;28;20444;-75
2022/02/13 13:10:22;;;;;;;;;;;10.40;92.30;;;;;;5080267;28;20092;-75
2022/02/13 13:12:57;;;;;;;;;;;10.40;92.50;;;;;;5079582;28;19923;-74
2022/02/13 13:15:22;;;;;;;;;;;10.40;92.90;;;;;;5081145;28;19918;-74
2022/02/13 13:17:48;;;;;;;;;;;10.40;93.20;;;;;;5079711;28;20015;-73
2022/02/13 13:20:24;;;;;;;;;;;10.30;93.30;;;;;;5080197;28;19999;-76
2022/02/13 13:23:09;;;;;;;;;;;10.30;93.80;;;;;;5080587;28;20382;-75
2022/02/13 13:25:34;;;;;;;;;;;10.30;93.60;;;;;;5078927;28;19952;-75
2022/02/13 13:28:06;;;;;;;;;;;10.30;94.00;;;;;;5080829;28;19908;-73
2022/02/13 13:30:34;;;;;;;;;;;10.30;94.10;;;;;;5078991;28;20291;-73
2022/02/13 13:33:01;;;;;;;;;;;10.30;94.30;;;;;;5080735;28;19912;-75
2022/02/13 13:35:31;;;;;;;;;;;10.20;94.20;;;;;;5079177;28;19908;-76
2022/02/13 13:37:57;;;;;;;;;;;10.30;94.40;;;;;;5081047;28;19912;-76
2022/02/13 13:40:24;;;;;;;;;;;10.30;94.20;;;;;;5074071;28;19975;-75
2022/02/13 13:42:57;;;;;;;;;;;10.20;94.20;;;;;;5080763;28;20389;-75
2022/02/13 13:45:27;;;;;;;;;;;10.30;94.30;;;;;;5080861;28;19927;-75
2022/02/13 13:47:53;;;;;;;;;;;10.30;94.50;;;;;;5080768;28;19909;-75
2022/02/13 13:50:21;;;;;;;;;;;10.30;94.50;;;;;;5080780;28;19924;-75
2022/02/13 13:52:47;;;;;;;;;;;10.30;94.50;;;;;;5079906;28;19985;-75
2022/02/13 13:55:13;;;;;;;;;;;10.30;94.50;;;;;;5080389;28;19958;-74
2022/02/13 13:57:39;;;;;;;;;;;10.30;94.80;;;;;;5079205;28;19912;-75
2022/02/13 14:00:05;;;;;;;;;;;10.30;94.90;;;;;;5080678;28;19908;-75
2022/02/13 14:02:31;;;;;;;;;;;10.20;94.60;;;;;;5078004;28;19997;-75
2022/02/13 14:04:57;;;;;;;;;;;10.20;94.90;;;;;;5080396;28;19916;-75
2022/02/13 14:07:22;;;;;;;;;;;10.20;94.70;;;;;;5080390;28;19915;-75
2022/02/13 14:09:48;;;;;;;;;;;10.30;94.90;;;;;;5069969;28;19931;-75
2022/02/13 14:12:15;;;;;;;;;;;10.30;95.00;;;;;;5079892;28;19909;-74
2022/02/13 14:14:41;;;;;;;;;;;10.30;95.00;;;;;;5078344;28;19913;-74
2022/02/13 14:17:07;;;;;;;;;;;10.20;94.90;;;;;;5079587;28;20264;-73
2022/02/13 14:19:33;;;;;;;;;;;10.20;94.80;;;;;;5078932;28;19970;-74
2022/02/13 14:21:59;;;;;;;;;;;10.20;95.00;;;;;;5080109;28;19909;-73
2022/02/13 14:24:25;;;;;;;;;;;10.20;95.10;;;;;;5079543;28;19913;-74
2022/02/13 14:26:51;;;;;;;;;;;10.20;95.00;;;;;;5079437;28;19909;-74
2022/02/13 14:29:16;;;;;;;;;;;10.20;95.20;;;;;;5079026;28;19917;-73